Terminal Aerodrome Forecast
Issued by NWS

Current Version | Previous Version | Graphics & Text | Print | Product List | Glossary On
Versions: 1 2 3 4 5 6 7 8 9 10 11 12 13 14 15 16 17 18 19 20 21 22 23 24 25 26
000
FTUS41 KPBZ 260500
TAFHLG
TAF
KHLG 260528Z 2606/2706 00000KT P6SM BKN100
     FM261700 22009KT P6SM SCT050 BKN080
     FM270300 21005KT 6SM -SHRA VCTS BKN050CB=

USA.gov is the U.S. government's official web portal to all federal, state and local government web resources and services.